Dubuque Regional Airport Dubuque US
ICAO: KDBQ
IATA: DBQ
Category: Large
Scheduled Services: Yes

Elevation: 1077 ft
TransAlt. 18000 ft.

Airport Communications:
ATIS:127.25
CHICAGO CNTR:127
CTAF:119.5
GND:121.8
FORT DODGE RDO:122.05
TWR:119.5
UNICOM:122.95

KDBQ Zoom In..

Runways:

(A) RW 13 length 6502 ft width 100 ft
---- / hdg 132

(B) RW 18 length 6327 ft width 150 ft
---- / hdg 177

(C) RW 31 length 6502 ft width 100 ft
ILS 108.70 / hdg 312

(D) RW 36 length 6327 ft width 150 ft
ILS 110.90 / hdg 357

Location; KDBQ
Day. 25 / Time. 11.53 Zulu
* Altimeter: 30.14
* Temperature: 06° c. 42.8°f.
* Wind from: 040° Speed 05 kn.
Dewpoint: -01° c.
Visibility: 10 Statute Miles.
Clouds: Clear (automated report).

KDBQ 251153Z 04005KT 10SM CLR 06/M01 A3014 RMK AO2 SLP207 T00611006 10117 20056 53009


Wind From 040°
Speed 05 kn.

  YouTube Music Video
 
jpsmedia.com for Web Design  worldairports.se 2018   terms of use